Ship Status Report: callsign BAREU51

sailwx.info

Track history (hours):
 
Tides and Currents Weather Stations Pressure Air Temp Water Temp Dewpoint Dewpoint Depression Visibility Wind Speed Wind Dir Waves Ship Positions

Callsign BAREU51 (name unknown)

Last reported at 2014-Oct-30 12:00 UTC. Time now 2014-Oct-30 13:07 UTC.
Position N 42°42' E 010°06'.

Barometer 1021.9 mb
Air temperature 18.8 ° C

Date/timePositionNaut miles runAvg speedWind from/ knotsBaromVisibWave heightAir tempDewpointWater temp
2014-Oct-30 12:00N 42°42' E 010°06'2121.4 1021.9 18.8
2014-Oct-30 11:00N 42°30' E 010°30'2625.6 1022.8 18.6
2014-Oct-30 10:00N 42°06' E 010°42'2222.4 1022.5 18.6
2014-Oct-30 09:00N 41°48' E 011°00'2625.6 1022.3 19.5
2014-Oct-30 08:00N 41°24' E 011°12'2020.1 1021.6 18.9
2014-Oct-30 07:00N 41°06' E 011°24'2827.6 1021.4 18.8
2014-Oct-30 06:00N 40°42' E 011°42'2020.2 1020.3 18.5
2014-Oct-30 05:00N 40°24' E 011°54'2020.2 1020.2 18.6
2014-Oct-30 04:00N 40°06' E 012°06'2827.7 1020.1 18.6
2014-Oct-30 03:00N 39°42' E 012°24'2020.2 1020.2 18.7
2014-Oct-30 02:00N 39°24' E 012°36'2625.7 1020.3 18.6
2014-Oct-30 01:00N 39°00' E 012°48'2020.3 1020.5 18.8
2014-Oct-30 00:00N 38°42' E 013°00'2322.9 1020.2 18.9
2014-Oct-29 23:00N 38°24' E 013°18'13 2.1 1020.3 19.2
2014-Oct-29 17:00N 38°12' E 013°24'2020.3 1018.8 19.4
2014-Oct-29 16:00N 38°30' E 013°12'4824.0 1018.3 19.5
2014-Oct-29 14:00N 39°12' E 012°42'2020.3 1018.5 20.7
2014-Oct-29 13:00N 39°30' E 012°30'2827.7 1018.3 20.8
2014-Oct-29 12:00N 39°54' E 012°12'2020.2 1018.4 19.7
2014-Oct-29 11:00N 40°12' E 012°00'2625.7 1018.4 19.7
2014-Oct-29 10:00N 40°36' E 011°48'2322.6 1018.8 20.0
2014-Oct-29 09:00N 40°54' E 011°30'2625.6 1018.4 19.5
2014-Oct-29 08:00N 41°18' E 011°18'2020.1 1018.3 19.3
2014-Oct-29 07:00N 41°36' E 011°06'2222.5 1017.5 16.1
2014-Oct-29 06:00N 41°54' E 010°48'2625.6 1016.9 17.0
2014-Oct-29 05:00N 42°18' E 010°36'2222.4 1016.8 17.3
2014-Oct-29 04:00N 42°36' E 010°18'1817.9 1017.0 16.8
2014-Oct-29 03:00N 42°48' E 010°00'2424.4 1017.5 16.7
2014-Oct-29 02:00N 43°12' E 009°54'2222.3 1017.7 15.7
2014-Oct-29 01:00N 43°30' E 009°36'2222.2 1018.2 15.6
2014-Oct-29 00:00N 43°48' E 009°18'2625.5 1018.6 16.0
2014-Oct-28 23:00N 44°12' E 009°06'15 3.0 1019.2 15.6
2014-Oct-28 18:00N 44°24' E 008°54'1514.8 1020.5 14.7
2014-Oct-28 17:00N 44°12' E 009°06'2625.5 1019.6 16.5
2014-Oct-28 16:00N 43°48' E 009°18'2222.2 1019.9 16.3
2014-Oct-28 15:00N 43°30' E 009°36'2222.3 1019.5 16.9
2014-Oct-28 14:00N 43°12' E 009°54'1918.5 1019.7 17.4
2014-Oct-28 13:00N 42°54' E 010°00'2222.3 1019.7 17.4
2014-Oct-28 12:00N 42°36' E 010°18'2222.4 1020.4 17.3
2014-Oct-28 11:00N 42°18' E 010°36'2727.5 1020.5 16.7
2014-Oct-28 10:00N 41°54' E 010°54'2020.1 1020.5 16.7
2014-Oct-28 09:00N 41°36' E 011°06'2020.1 1020.7 16.6
2014-Oct-28 08:00N 41°18' E 011°18'2827.6 1020.1 18.2
2014-Oct-28 07:00N 40°54' E 011°36'2020.2 1019.6 17.9
2014-Oct-28 06:00N 40°36' E 011°48'2322.6 1019.3 15.8
2014-Oct-28 05:00N 40°18' E 012°06'2625.7 1018.7 14.6
2014-Oct-28 04:00N 39°54' E 012°18'2322.7 1018.5 18.1
2014-Oct-28 03:00N 39°36' E 012°36'2322.7 1018.3 17.3
2014-Oct-28 02:00N 39°18' E 012°54'2322.8 1018.4 19.5
2014-Oct-28 01:00N 39°00' E 013°12'2020.3 1018.6 19.3
2014-Oct-28 00:00N 38°42' E 013°24'2424.0 1018.6 19.2
2014-Oct-27 23:00N 38°18' E 013°24'12 0.4 1018.8 19.0
2014-Oct-26 18:00N 38°06' E 013°24'1212.0 1021.0 19.3
2014-Oct-26 17:00N 38°18' E 013°24'2322.9 1020.0 19.4
2014-Oct-26 16:00N 38°36' E 013°06'2020.3 1019.7 19.7
2014-Oct-26 15:00N 38°54' E 012°54'2827.8 1019.6 20.3
2014-Oct-26 14:00N 39°18' E 012°36'2020.2 1019.8 21.1
2014-Oct-26 13:00N 39°36' E 012°24'2625.7 1019.8 20.9
2014-Oct-26 12:00N 40°00' E 012°12'2020.2 1020.1 20.9
2014-Oct-26 11:00N 40°18' E 012°00'2322.6 1020.7 20.7
2014-Oct-26 10:00N 40°36' E 011°42'1312.8 1021.6 21.0
2014-Oct-26 09:00N 40°48' E 011°36'1312.8 1021.4 19.8
2014-Oct-26 08:00N 41°00' E 011°30'2020.1 1021.2 17.9
2014-Oct-26 07:00N 41°18' E 011°18'2827.5 1020.8 17.4
2014-Oct-26 06:00N 41°42' E 011°00'2020.1 1020.7 16.2
2014-Oct-26 05:00N 42°00' E 010°48'2020.1 1020.5 16.1
2014-Oct-26 04:00N 42°18' E 010°36'2525.3 1020.6 15.5
2014-Oct-26 03:00N 42°36' E 010°12'2020.0 1020.7 15.8
2014-Oct-26 02:00N 42°54' E 010°00'2625.5 1021.2 16.3
2014-Oct-26 01:00N 43°18' E 009°48'1817.7 1020.9 16.8
2014-Oct-26 00:00N 43°30' E 009°30'2727.3 1020.9 17.8
2014-Oct-25 23:00N 43°54' E 009°12'1918.5 1021.5 18.5
2014-Oct-25 22:00N 44°12' E 009°06'15 3.0 1021.8 16.7
2014-Oct-25 17:00N 44°24' E 008°54'1514.8 1019.9 16.2
2014-Oct-25 16:00N 44°12' E 009°06'2625.5 1018.8 18.5
2014-Oct-25 15:00N 43°48' E 009°18'2222.2 1018.9 19.9
2014-Oct-25 14:00N 43°30' E 009°36'2222.3 1019.1 20.5
2014-Oct-25 13:00N 43°12' E 009°54'2424.4 1018.9 20.3
2014-Oct-25 12:00N 42°48' E 010°00'2222.3 1018.9 20.6
2014-Oct-25 11:00N 42°30' E 010°18'1817.9 1019.4 19.8
2014-Oct-25 10:00N 42°18' E 010°36'2727.5 1018.3 18.8
2014-Oct-25 09:00N 41°54' E 010°54'2020.1 1018.7 19.7
2014-Oct-25 08:00N 41°36' E 011°06'2020.1 1017.3 17.9
2014-Oct-25 07:00N 41°18' E 011°18'2827.6 1016.7 18.4
2014-Oct-25 06:00N 40°54' E 011°36'2020.2 1015.2 18.1
2014-Oct-25 05:00N 40°36' E 011°48'2020.2 1014.4 18.1
2014-Oct-25 04:00N 40°18' E 012°00'4622.9 1013.8 18.1
2014-Oct-25 02:00N 39°36' E 012°24'2322.7 1013.2 19.0
2014-Oct-25 01:00N 39°18' E 012°42'2020.3 1013.0 19.6
2014-Oct-25 00:00N 39°00' E 012°54'2625.8 1012.7 19.9
2014-Oct-24 23:00N 38°36' E 013°06'2322.9 1013.3 19.8
2014-Oct-24 22:00N 38°18' E 013°24'12 2.4 1013.4 19.6
2014-Oct-24 17:00N 38°06' E 013°24'1212.0 1013.1 18.7
2014-Oct-24 16:00N 38°18' E 013°24'2322.9 1012.4 19.0
2014-Oct-24 15:00N 38°36' E 013°06'2020.3 1012.4 20.6
2014-Oct-24 14:00N 38°54' E 012°54'2625.7 1012.1 19.5
2014-Oct-24 13:00N 39°18' E 012°42'2020.2 1011.7 20.1
2014-Oct-24 12:00N 39°36' E 012°30'2625.7 1012.2 20.5
2014-Oct-24 11:00N 40°00' E 012°18'2322.7 1012.4 20.6
2014-Oct-24 10:00N 40°18' E 012°00'2625.7 1012.4 18.4
2014-Oct-24 09:00N 40°42' E 011°48'2827.6 1011.6 18.6
2014-Oct-24 08:00N 41°06' E 011°30'2827.5 1011.5 18.6
2014-Oct-24 07:00N 41°30' E 011°12'2625.6 1012.5 18.5
2014-Oct-24 06:00N 41°54' E 011°00'2625.6 1011.5 19.1
2014-Oct-24 05:00N 42°18' E 010°48'2928.5 1011.2 17.6
2014-Oct-24 04:00N 42°36' E 010°18'2222.3 1011.3 18.6
2014-Oct-24 03:00N 42°54' E 010°00'2625.5 1011.0 19.5
2014-Oct-24 02:00N 43°18' E 009°48'2727.3 1011.4 20.1
2014-Oct-24 01:00N 43°42' E 009°30'2222.2 1010.9 20.4
2014-Oct-24 00:00N 44°00' E 009°12'2727.2 1011.2 20.5
2014-Oct-23 23:00N 44°24' E 008°54'0 0.0 1011.9 19.1
2014-Oct-23 19:00N 44°24' E 008°54'1514.8 1010.5 19.3
2014-Oct-23 18:00N 44°12' E 009°06'2524.7 1009.2 22.2
2014-Oct-23 17:00N 44°00' E 009°36'3030.3 1008.0 22.3
2014-Oct-23 16:00N 43°30' E 009°42'2222.3 1007.6 22.4
2014-Oct-23 15:00N 43°12' E 010°00'3030.0 1007.2 22.6
2014-Oct-23 14:00N 42°42' E 010°00'2424.4 1006.7 20.4
2014-Oct-23 13:00N 42°18' E 009°54'2424.0 1006.8 21.1
2014-Oct-23 12:00N 41°54' E 009°54'3030.3 1009.5 21.1
2014-Oct-23 11:00N 41°24' E 009°48'2424.4 1007.4 18.6
2014-Oct-23 10:00N 41°00' E 009°54'2827.6 1009.1 19.6
2014-Oct-23 09:00N 40°36' E 010°12'2322.6 1009.6 19.0
2014-Oct-23 08:00N 40°18' E 010°30'2625.7 1010.8 18.9
2014-Oct-23 07:00N 40°00' E 010°54'3030.3 1010.6 19.8
2014-Oct-23 06:00N 39°36' E 011°18'1818.4 1010.1 18.8
2014-Oct-23 05:00N 39°24' E 011°36'2322.8 1010.4 18.7
2014-Oct-23 04:00N 39°06' E 011°54'2222.2 1009.9 19.1
2014-Oct-23 03:00N 38°54' E 012°18'1515.2 1010.0 19.1
2014-Oct-23 02:00N 38°48' E 012°36'2626.0 1009.5 18.8
2014-Oct-23 01:00N 38°30' E 013°00'1918.5 1008.3 19.3
2014-Oct-23 00:00N 38°18' E 013°18'13 2.1 1008.4 19.1
2014-Oct-22 18:00N 38°06' E 013°24'1515.3 1008.6 21.5
2014-Oct-22 17:00N 38°18' E 013°12'2626.4 1007.2 21.5
2014-Oct-22 16:00N 38°30' E 012°42'2222.3 1007.9 21.8
2014-Oct-22 15:00N 38°42' E 012°18'2019.7 1008.2 22.1
2014-Oct-22 14:00N 38°48' E 011°54'2222.2 1008.4 21.9
2014-Oct-22 13:00N 39°00' E 011°30'2222.2 1008.9 21.8
2014-Oct-22 12:00N 39°12' E 011°06'1818.4 1009.9 21.6
2014-Oct-22 11:00N 39°24' E 010°48'3030.3 1010.8 22.0
2014-Oct-22 10:00N 39°48' E 010°24'2322.7 1010.7 21.5
2014-Oct-22 09:00N 40°06' E 010°06'2424.4 1009.2 19.5
2014-Oct-22 08:00N 40°30' E 010°00'3030.3 1007.7 19.5
2014-Oct-22 07:00N 41°00' E 009°54'2625.6 1005.4 19.2
2014-Oct-22 06:00N 41°24' E 009°42'2424.0 1005.4 20.1
2014-Oct-22 05:00N 41°48' E 009°42'2424.4 1006.3 22.2
2014-Oct-22 04:00N 42°12' E 009°48'2424.0 1005.6 22.6
2014-Oct-22 03:00N 42°36' E 009°48'2020.0 1001.6 21.9
2014-Oct-22 02:00N 42°54' E 010°00'2020.0 999.1 22.1
2014-Oct-22 01:00N 43°12' E 009°48'2222.3 1003.3 22.2
2014-Oct-22 00:00N 43°30' E 009°30'2222.2 1004.6 21.3
2014-Oct-21 23:00N 43°48' E 009°12'1918.5 1004.6 21.1
2014-Oct-21 22:00N 44°06' E 009°06'20 4.0 1004.8 20.7
2014-Oct-21 17:00N 44°24' E 008°54'1514.8 1009.3 21.9
2014-Oct-21 16:00N 44°12' E 009°06'2020.0 1009.2 22.2
2014-Oct-21 15:00N 43°54' E 009°18'2727.3 1010.4 22.3
2014-Oct-21 14:00N 43°30' E 009°36'2222.3 1010.3 22.3
2014-Oct-21 13:00N 43°12' E 009°54'1918.5 1012.7 22.7
2014-Oct-21 12:00N 42°54' E 010°00'2222.3 1014.0 23.8
2014-Oct-21 11:00N 42°36' E 010°18'2222.4 1015.3 24.4
2014-Oct-21 10:00N 42°18' E 010°36'2625.6 1015.3 23.4
2014-Oct-21 09:00N 41°54' E 010°48'2222.5 1015.7 23.2
2014-Oct-21 08:00N 41°36' E 011°06'2020.1 1014.9 22.1
2014-Oct-21 07:00N 41°18' E 011°18'2625.6 1016.2 22.4
2014-Oct-21 06:00N 40°54' E 011°30'2322.6 1016.2 22.8
2014-Oct-21 05:00N 40°36' E 011°48'2020.2 1016.6 22.7
2014-Oct-21 04:00N 40°18' E 012°00'2625.7 1017.6 22.1
2014-Oct-21 03:00N 39°54' E 012°12'2020.2 1018.3 22.0
2014-Oct-21 02:00N 39°36' E 012°24'2827.7 1019.0 21.8
2014-Oct-21 01:00N 39°12' E 012°42'2020.3 1019.6 21.8
2014-Oct-21 00:00N 38°54' E 012°54'2020.3 1020.1 22.2
2014-Oct-20 23:00N 38°36' E 013°06'2322.9 1020.2 21.9
2014-Oct-20 22:00N 38°18' E 013°24'   1020.5 22.0
Track history (hours):
 
Tides and Currents Weather Stations Pressure Air Temp Water Temp Dewpoint Dewpoint Depression Visibility Wind Speed Wind Dir Waves Ship Positions

Callsign BAREU51 (name unknown)

Last reported at 2014-Oct-30 12:00 UTC. Time now 2014-Oct-30 13:07 UTC.
Position N 42°42' E 010°06'.

Barometer 1021.9 mb
Air temperature 18.8 ° C

Date/timePositionNaut miles runAvg speedWind from/ knotsBaromVisibWave heightAir tempDewpointWater temp
2014-Oct-30 12:00N 42°42' E 010°06'2121.4 1021.9 18.8
2014-Oct-30 11:00N 42°30' E 010°30'2625.6 1022.8 18.6
2014-Oct-30 10:00N 42°06' E 010°42'2222.4 1022.5 18.6
2014-Oct-30 09:00N 41°48' E 011°00'2625.6 1022.3 19.5
2014-Oct-30 08:00N 41°24' E 011°12'2020.1 1021.6 18.9
2014-Oct-30 07:00N 41°06' E 011°24'2827.6 1021.4 18.8
2014-Oct-30 06:00N 40°42' E 011°42'2020.2 1020.3 18.5
2014-Oct-30 05:00N 40°24' E 011°54'2020.2 1020.2 18.6
2014-Oct-30 04:00N 40°06' E 012°06'2827.7 1020.1 18.6
2014-Oct-30 03:00N 39°42' E 012°24'2020.2 1020.2 18.7
2014-Oct-30 02:00N 39°24' E 012°36'2625.7 1020.3 18.6
2014-Oct-30 01:00N 39°00' E 012°48'2020.3 1020.5 18.8
2014-Oct-30 00:00N 38°42' E 013°00'2322.9 1020.2 18.9
2014-Oct-29 23:00N 38°24' E 013°18'13 2.1 1020.3 19.2
2014-Oct-29 17:00N 38°12' E 013°24'2020.3 1018.8 19.4
2014-Oct-29 16:00N 38°30' E 013°12'4824.0 1018.3 19.5
2014-Oct-29 14:00N 39°12' E 012°42'2020.3 1018.5 20.7
2014-Oct-29 13:00N 39°30' E 012°30'2827.7 1018.3 20.8
2014-Oct-29 12:00N 39°54' E 012°12'2020.2 1018.4 19.7
2014-Oct-29 11:00N 40°12' E 012°00'2625.7 1018.4 19.7
2014-Oct-29 10:00N 40°36' E 011°48'2322.6 1018.8 20.0
2014-Oct-29 09:00N 40°54' E 011°30'2625.6 1018.4 19.5
2014-Oct-29 08:00N 41°18' E 011°18'2020.1 1018.3 19.3
2014-Oct-29 07:00N 41°36' E 011°06'2222.5 1017.5 16.1
2014-Oct-29 06:00N 41°54' E 010°48'2625.6 1016.9 17.0
2014-Oct-29 05:00N 42°18' E 010°36'2222.4 1016.8 17.3
2014-Oct-29 04:00N 42°36' E 010°18'1817.9 1017.0 16.8
2014-Oct-29 03:00N 42°48' E 010°00'2424.4 1017.5 16.7
2014-Oct-29 02:00N 43°12' E 009°54'2222.3 1017.7 15.7
2014-Oct-29 01:00N 43°30' E 009°36'2222.2 1018.2 15.6
2014-Oct-29 00:00N 43°48' E 009°18'2625.5 1018.6 16.0
2014-Oct-28 23:00N 44°12' E 009°06'15 3.0 1019.2 15.6
2014-Oct-28 18:00N 44°24' E 008°54'1514.8 1020.5 14.7
2014-Oct-28 17:00N 44°12' E 009°06'2625.5 1019.6 16.5
2014-Oct-28 16:00N 43°48' E 009°18'2222.2 1019.9 16.3
2014-Oct-28 15:00N 43°30' E 009°36'2222.3 1019.5 16.9
2014-Oct-28 14:00N 43°12' E 009°54'1918.5 1019.7 17.4
2014-Oct-28 13:00N 42°54' E 010°00'2222.3 1019.7 17.4
2014-Oct-28 12:00N 42°36' E 010°18'2222.4 1020.4 17.3
2014-Oct-28 11:00N 42°18' E 010°36'2727.5 1020.5 16.7
2014-Oct-28 10:00N 41°54' E 010°54'2020.1 1020.5 16.7
2014-Oct-28 09:00N 41°36' E 011°06'2020.1 1020.7 16.6
2014-Oct-28 08:00N 41°18' E 011°18'2827.6 1020.1 18.2
2014-Oct-28 07:00N 40°54' E 011°36'2020.2 1019.6 17.9
2014-Oct-28 06:00N 40°36' E 011°48'2322.6 1019.3 15.8
2014-Oct-28 05:00N 40°18' E 012°06'2625.7 1018.7 14.6
2014-Oct-28 04:00N 39°54' E 012°18'2322.7 1018.5 18.1
2014-Oct-28 03:00N 39°36' E 012°36'2322.7 1018.3 17.3
2014-Oct-28 02:00N 39°18' E 012°54'2322.8 1018.4 19.5
2014-Oct-28 01:00N 39°00' E 013°12'2020.3 1018.6 19.3
2014-Oct-28 00:00N 38°42' E 013°24'2424.0 1018.6 19.2
2014-Oct-27 23:00N 38°18' E 013°24'12 0.4 1018.8 19.0
2014-Oct-26 18:00N 38°06' E 013°24'1212.0 1021.0 19.3
2014-Oct-26 17:00N 38°18' E 013°24'2322.9 1020.0 19.4
2014-Oct-26 16:00N 38°36' E 013°06'2020.3 1019.7 19.7
2014-Oct-26 15:00N 38°54' E 012°54'2827.8 1019.6 20.3
2014-Oct-26 14:00N 39°18' E 012°36'2020.2 1019.8 21.1
2014-Oct-26 13:00N 39°36' E 012°24'2625.7 1019.8 20.9
2014-Oct-26 12:00N 40°00' E 012°12'2020.2 1020.1 20.9
2014-Oct-26 11:00N 40°18' E 012°00'2322.6 1020.7 20.7
2014-Oct-26 10:00N 40°36' E 011°42'1312.8 1021.6 21.0
2014-Oct-26 09:00N 40°48' E 011°36'1312.8 1021.4 19.8
2014-Oct-26 08:00N 41°00' E 011°30'2020.1 1021.2 17.9
2014-Oct-26 07:00N 41°18' E 011°18'2827.5 1020.8 17.4
2014-Oct-26 06:00N 41°42' E 011°00'2020.1 1020.7 16.2
2014-Oct-26 05:00N 42°00' E 010°48'2020.1 1020.5 16.1
2014-Oct-26 04:00N 42°18' E 010°36'2525.3 1020.6 15.5
2014-Oct-26 03:00N 42°36' E 010°12'2020.0 1020.7 15.8
2014-Oct-26 02:00N 42°54' E 010°00'2625.5 1021.2 16.3
2014-Oct-26 01:00N 43°18' E 009°48'1817.7 1020.9 16.8
2014-Oct-26 00:00N 43°30' E 009°30'2727.3 1020.9 17.8
2014-Oct-25 23:00N 43°54' E 009°12'1918.5 1021.5 18.5
2014-Oct-25 22:00N 44°12' E 009°06'15 3.0 1021.8 16.7
2014-Oct-25 17:00N 44°24' E 008°54'1514.8 1019.9 16.2
2014-Oct-25 16:00N 44°12' E 009°06'2625.5 1018.8 18.5
2014-Oct-25 15:00N 43°48' E 009°18'2222.2 1018.9 19.9
2014-Oct-25 14:00N 43°30' E 009°36'2222.3 1019.1 20.5
2014-Oct-25 13:00N 43°12' E 009°54'2424.4 1018.9 20.3
2014-Oct-25 12:00N 42°48' E 010°00'2222.3 1018.9 20.6
2014-Oct-25 11:00N 42°30' E 010°18'1817.9 1019.4 19.8
2014-Oct-25 10:00N 42°18' E 010°36'2727.5 1018.3 18.8
2014-Oct-25 09:00N 41°54' E 010°54'2020.1 1018.7 19.7
2014-Oct-25 08:00N 41°36' E 011°06'2020.1 1017.3 17.9
2014-Oct-25 07:00N 41°18' E 011°18'2827.6 1016.7 18.4
2014-Oct-25 06:00N 40°54' E 011°36'2020.2 1015.2 18.1
2014-Oct-25 05:00N 40°36' E 011°48'2020.2 1014.4 18.1
2014-Oct-25 04:00N 40°18' E 012°00'4622.9 1013.8 18.1
2014-Oct-25 02:00N 39°36' E 012°24'2322.7 1013.2 19.0
2014-Oct-25 01:00N 39°18' E 012°42'2020.3 1013.0 19.6
2014-Oct-25 00:00N 39°00' E 012°54'2625.8 1012.7 19.9
2014-Oct-24 23:00N 38°36' E 013°06'2322.9 1013.3 19.8
2014-Oct-24 22:00N 38°18' E 013°24'12 2.4 1013.4 19.6
2014-Oct-24 17:00N 38°06' E 013°24'1212.0 1013.1 18.7
2014-Oct-24 16:00N 38°18' E 013°24'2322.9 1012.4 19.0
2014-Oct-24 15:00N 38°36' E 013°06'2020.3 1012.4 20.6
2014-Oct-24 14:00N 38°54' E 012°54'2625.7 1012.1 19.5
2014-Oct-24 13:00N 39°18' E 012°42'2020.2 1011.7 20.1
2014-Oct-24 12:00N 39°36' E 012°30'2625.7 1012.2 20.5
2014-Oct-24 11:00N 40°00' E 012°18'2322.7 1012.4 20.6
2014-Oct-24 10:00N 40°18' E 012°00'2625.7 1012.4 18.4
2014-Oct-24 09:00N 40°42' E 011°48'2827.6 1011.6 18.6
2014-Oct-24 08:00N 41°06' E 011°30'2827.5 1011.5 18.6
2014-Oct-24 07:00N 41°30' E 011°12'2625.6 1012.5 18.5
2014-Oct-24 06:00N 41°54' E 011°00'2625.6 1011.5 19.1
2014-Oct-24 05:00N 42°18' E 010°48'2928.5 1011.2 17.6
2014-Oct-24 04:00N 42°36' E 010°18'2222.3 1011.3 18.6
2014-Oct-24 03:00N 42°54' E 010°00'2625.5 1011.0 19.5
2014-Oct-24 02:00N 43°18' E 009°48'2727.3 1011.4 20.1
2014-Oct-24 01:00N 43°42' E 009°30'2222.2 1010.9 20.4
2014-Oct-24 00:00N 44°00' E 009°12'2727.2 1011.2 20.5
2014-Oct-23 23:00N 44°24' E 008°54'0 0.0 1011.9 19.1
2014-Oct-23 19:00N 44°24' E 008°54'1514.8 1010.5 19.3
2014-Oct-23 18:00N 44°12' E 009°06'2524.7 1009.2 22.2
2014-Oct-23 17:00N 44°00' E 009°36'3030.3 1008.0 22.3
2014-Oct-23 16:00N 43°30' E 009°42'2222.3 1007.6 22.4
2014-Oct-23 15:00N 43°12' E 010°00'3030.0 1007.2 22.6
2014-Oct-23 14:00N 42°42' E 010°00'2424.4 1006.7 20.4
2014-Oct-23 13:00N 42°18' E 009°54'2424.0 1006.8 21.1
2014-Oct-23 12:00N 41°54' E 009°54'3030.3 1009.5 21.1
2014-Oct-23 11:00N 41°24' E 009°48'2424.4 1007.4 18.6
2014-Oct-23 10:00N 41°00' E 009°54'2827.6 1009.1 19.6
2014-Oct-23 09:00N 40°36' E 010°12'2322.6 1009.6 19.0
2014-Oct-23 08:00N 40°18' E 010°30'2625.7 1010.8 18.9
2014-Oct-23 07:00N 40°00' E 010°54'3030.3 1010.6 19.8
2014-Oct-23 06:00N 39°36' E 011°18'1818.4 1010.1 18.8
2014-Oct-23 05:00N 39°24' E 011°36'2322.8 1010.4 18.7
2014-Oct-23 04:00N 39°06' E 011°54'2222.2 1009.9 19.1
2014-Oct-23 03:00N 38°54' E 012°18'1515.2 1010.0 19.1
2014-Oct-23 02:00N 38°48' E 012°36'2626.0 1009.5 18.8
2014-Oct-23 01:00N 38°30' E 013°00'1918.5 1008.3 19.3
2014-Oct-23 00:00N 38°18' E 013°18'13 2.1 1008.4 19.1
2014-Oct-22 18:00N 38°06' E 013°24'1515.3 1008.6 21.5
2014-Oct-22 17:00N 38°18' E 013°12'2626.4 1007.2 21.5
2014-Oct-22 16:00N 38°30' E 012°42'2222.3 1007.9 21.8
2014-Oct-22 15:00N 38°42' E 012°18'2019.7 1008.2 22.1
2014-Oct-22 14:00N 38°48' E 011°54'2222.2 1008.4 21.9
2014-Oct-22 13:00N 39°00' E 011°30'2222.2 1008.9 21.8
2014-Oct-22 12:00N 39°12' E 011°06'1818.4 1009.9 21.6
2014-Oct-22 11:00N 39°24' E 010°48'3030.3 1010.8 22.0
2014-Oct-22 10:00N 39°48' E 010°24'2322.7 1010.7 21.5
2014-Oct-22 09:00N 40°06' E 010°06'2424.4 1009.2 19.5
2014-Oct-22 08:00N 40°30' E 010°00'3030.3 1007.7 19.5
2014-Oct-22 07:00N 41°00' E 009°54'2625.6 1005.4 19.2
2014-Oct-22 06:00N 41°24' E 009°42'2424.0 1005.4 20.1
2014-Oct-22 05:00N 41°48' E 009°42'2424.4 1006.3 22.2
2014-Oct-22 04:00N 42°12' E 009°48'2424.0 1005.6 22.6
2014-Oct-22 03:00N 42°36' E 009°48'2020.0 1001.6 21.9
2014-Oct-22 02:00N 42°54' E 010°00'2020.0 999.1 22.1
2014-Oct-22 01:00N 43°12' E 009°48'2222.3 1003.3 22.2
2014-Oct-22 00:00N 43°30' E 009°30'2222.2 1004.6 21.3
2014-Oct-21 23:00N 43°48' E 009°12'1918.5 1004.6 21.1
2014-Oct-21 22:00N 44°06' E 009°06'20 4.0 1004.8 20.7
2014-Oct-21 17:00N 44°24' E 008°54'1514.8 1009.3 21.9
2014-Oct-21 16:00N 44°12' E 009°06'2020.0 1009.2 22.2
2014-Oct-21 15:00N 43°54' E 009°18'2727.3 1010.4 22.3
2014-Oct-21 14:00N 43°30' E 009°36'2222.3 1010.3 22.3
2014-Oct-21 13:00N 43°12' E 009°54'1918.5 1012.7 22.7
2014-Oct-21 12:00N 42°54' E 010°00'2222.3 1014.0 23.8
2014-Oct-21 11:00N 42°36' E 010°18'2222.4 1015.3 24.4
2014-Oct-21 10:00N 42°18' E 010°36'2625.6 1015.3 23.4
2014-Oct-21 09:00N 41°54' E 010°48'2222.5 1015.7 23.2
2014-Oct-21 08:00N 41°36' E 011°06'2020.1 1014.9 22.1
2014-Oct-21 07:00N 41°18' E 011°18'2625.6 1016.2 22.4
2014-Oct-21 06:00N 40°54' E 011°30'2322.6 1016.2 22.8
2014-Oct-21 05:00N 40°36' E 011°48'2020.2 1016.6 22.7
2014-Oct-21 04:00N 40°18' E 012°00'2625.7 1017.6 22.1
2014-Oct-21 03:00N 39°54' E 012°12'2020.2 1018.3 22.0
2014-Oct-21 02:00N 39°36' E 012°24'2827.7 1019.0 21.8
2014-Oct-21 01:00N 39°12' E 012°42'2020.3 1019.6 21.8
2014-Oct-21 00:00N 38°54' E 012°54'2020.3 1020.1 22.2
2014-Oct-20 23:00N 38°36' E 013°06'2322.9 1020.2 21.9
2014-Oct-20 22:00N 38°18' E 013°24'   1020.5 22.0

Dump ship's entire track history